createdAt,value
2023-01-01T00:01:28.470Z,12.50
2023-01-01T00:06:30.855Z,12.50
2023-01-01T00:11:33.242Z,12.60
2023-01-01T00:16:36.005Z,12.70
2023-01-01T00:21:40.136Z,13.00
2023-01-01T00:26:42.539Z,12.80
2023-01-01T00:31:45.734Z,12.90
2023-01-01T00:36:48.221Z,12.90
2023-01-01T00:41:50.589Z,13.00
2023-01-01T00:46:52.955Z,12.80
2023-01-01T00:51:55.853Z,12.90
2023-01-01T00:56:58.409Z,13.00
2023-01-01T01:02:00.954Z,13.10
2023-01-01T01:07:04.112Z,13.20
2023-01-01T01:12:17.905Z,13.30
2023-01-01T01:17:21.362Z,13.20
2023-01-01T01:22:28.329Z,13.30
2023-01-01T01:27:31.895Z,13.60
2023-01-01T01:32:34.281Z,13.40
2023-01-01T01:37:36.730Z,13.30
2023-01-01T01:42:39.179Z,13.50
2023-01-01T01:47:56.695Z,13.40
2023-01-01T01:53:08.965Z,13.40
2023-01-01T01:58:14.909Z,13.30
2023-01-01T02:03:32.028Z,13.50
2023-01-01T02:08:35.256Z,13.40
2023-01-01T02:13:37.748Z,13.50
2023-01-01T02:19:08.039Z,13.50
2023-01-01T02:24:10.396Z,13.40
2023-01-01T02:29:27.420Z,13.50
2023-01-01T02:34:35.261Z,13.60
2023-01-01T02:39:42.408Z,13.70
2023-01-01T02:44:49.083Z,13.70
2023-01-01T02:49:56.538Z,13.70
2023-01-01T02:55:08.470Z,14.00
2023-01-01T03:00:31.399Z,13.90
2023-01-01T03:06:14.554Z,13.90
2023-01-01T03:11:19.857Z,13.90
2023-01-01T03:16:32.870Z,14.00
2023-01-01T03:21:35.982Z,14.00
2023-01-01T03:26:40.674Z,14.00
2023-01-01T03:31:46.119Z,13.80
2023-01-01T03:36:55.283Z,13.90
2023-01-01T03:42:25.739Z,13.70
2023-01-01T03:47:29.390Z,13.60
2023-01-01T03:52:51.037Z,13.60
2023-01-01T03:58:01.128Z,13.50
2023-01-01T04:03:17.597Z,13.60
2023-01-01T04:08:20.494Z,13.50
2023-01-01T04:13:23.411Z,13.50
2023-01-01T04:18:25.736Z,13.60
2023-01-01T04:23:28.114Z,13.50
2023-01-01T04:28:30.587Z,13.30
2023-01-01T04:33:33.097Z,13.40
2023-01-01T04:38:38.896Z,13.30
2023-01-01T04:43:41.366Z,13.30
2023-01-01T04:48:44.292Z,13.40
2023-01-01T04:53:46.871Z,13.20
2023-01-01T04:58:50.172Z,13.30
2023-01-01T05:03:52.888Z,13.50
2023-01-01T05:08:56.672Z,13.60
2023-01-01T05:14:00.383Z,13.60
2023-01-01T05:19:03.353Z,13.60
2023-01-01T05:24:08.325Z,13.30
2023-01-01T05:29:16.456Z,13.30
2023-01-01T05:34:19.251Z,13.40
2023-01-01T05:39:21.754Z,13.30
2023-01-01T05:44:24.103Z,13.20
2023-01-01T05:49:26.502Z,13.30
2023-01-01T05:54:28.914Z,13.20
2023-01-01T05:59:31.331Z,13.00
2023-01-01T06:04:33.765Z,12.80
2023-01-01T06:09:36.130Z,12.80
2023-01-01T06:14:38.479Z,12.70
2023-01-01T06:19:40.994Z,12.70
2023-01-01T06:24:43.445Z,12.60
2023-01-01T06:29:45.939Z,12.70
2023-01-01T06:34:48.737Z,12.80
2023-01-01T06:39:51.223Z,12.80
2023-01-01T06:44:53.614Z,12.80
2023-01-01T06:49:55.996Z,13.10
2023-01-01T06:54:58.342Z,12.90
2023-01-01T07:00:01.380Z,13.10
2023-01-01T07:05:03.889Z,13.00
2023-01-01T07:10:06.736Z,13.00
2023-01-01T07:15:09.506Z,13.10
2023-01-01T07:20:13.926Z,13.30
2023-01-01T07:25:16.611Z,13.30
2023-01-01T07:30:20.219Z,13.40
2023-01-01T07:35:22.895Z,13.50
2023-01-01T07:40:25.254Z,13.60
2023-01-01T07:45:28.054Z,13.60
2023-01-01T07:50:32.511Z,13.70
2023-01-01T07:55:34.968Z,13.70
2023-01-01T08:00:37.439Z,13.90
2023-01-01T08:05:39.852Z,14.00
2023-01-01T08:10:42.253Z,14.00
2023-01-01T08:15:44.763Z,14.00
2023-01-01T08:20:47.136Z,14.20
2023-01-01T08:25:49.498Z,14.30
2023-01-01T08:30:51.889Z,14.30
2023-01-01T08:35:54.986Z,14.50
2023-01-01T08:40:57.472Z,14.50
2023-01-01T08:46:02.839Z,14.60
2023-01-01T08:51:05.890Z,14.70
2023-01-01T08:56:10.655Z,14.70
2023-01-01T09:01:13.561Z,14.80
2023-01-01T09:06:16.017Z,15.00
2023-01-01T09:11:26.166Z,15.30
2023-01-01T09:16:28.561Z,15.40
2023-01-01T09:21:30.927Z,15.50
2023-01-01T09:26:33.341Z,15.70
2023-01-01T09:31:35.767Z,15.80
2023-01-01T09:36:38.294Z,15.70
2023-01-01T09:42:10.050Z,15.90
2023-01-01T09:47:41.257Z,15.80
2023-01-01T09:53:07.991Z,15.90
2023-01-01T09:58:12.007Z,16.00
2023-01-01T10:03:31.157Z,16.10
2023-01-01T10:08:54.537Z,16.10
2023-01-01T10:13:59.644Z,16.40
2023-01-01T10:19:24.872Z,16.40
2023-01-01T10:24:51.681Z,16.50
2023-01-01T10:29:59.591Z,16.50
2023-01-01T10:35:37.835Z,16.30
2023-01-01T10:40:40.326Z,16.30
2023-01-01T10:45:47.243Z,16.20
2023-01-01T10:50:55.346Z,16.10
2023-01-01T10:55:59.869Z,16.10
2023-01-01T11:01:04.614Z,16.10
2023-01-01T11:06:22.885Z,16.10
2023-01-01T11:11:30.984Z,16.00
2023-01-01T11:16:33.727Z,15.90
2023-01-01T11:21:36.234Z,16.00
2023-01-01T11:26:38.645Z,15.80
2023-01-01T11:31:41.382Z,15.90
2023-01-01T11:36:43.780Z,15.90
2023-01-01T11:41:51.866Z,15.80
2023-01-01T11:46:54.372Z,15.70
2023-01-01T11:51:58.270Z,15.80
2023-01-01T11:57:18.124Z,15.80
2023-01-01T12:02:43.495Z,16.00
2023-01-01T12:07:46.756Z,15.80
2023-01-01T12:12:57.511Z,15.80
2023-01-01T12:18:10.794Z,15.80
2023-01-01T12:23:16.637Z,15.80
2023-01-01T12:28:43.805Z,15.80
2023-01-01T12:34:13.098Z,15.70
2023-01-01T12:39:42.175Z,15.70
2023-01-01T12:45:30.884Z,15.70
2023-01-01T12:50:54.998Z,15.70
2023-01-01T12:56:04.627Z,15.60
2023-01-01T13:01:14.508Z,15.60
2023-01-01T13:06:28.335Z,15.60
2023-01-01T13:11:31.811Z,15.60
2023-01-01T13:16:41.462Z,15.50
2023-01-01T13:21:43.873Z,15.30
2023-01-01T13:26:47.005Z,15.30
2023-01-01T13:31:49.409Z,15.30
2023-01-01T13:36:51.824Z,15.20
2023-01-01T13:41:54.250Z,15.10
2023-01-01T13:47:14.044Z,15.10
2023-01-01T13:52:31.977Z,14.90
2023-01-01T13:58:11.362Z,14.80
2023-01-01T14:03:16.922Z,14.70
2023-01-01T14:08:31.424Z,14.80
2023-01-01T14:13:41.681Z,14.80
2023-01-01T14:18:50.034Z,14.70
2023-01-01T14:24:02.185Z,14.50
2023-01-01T14:29:09.794Z,14.30
2023-01-01T14:34:30.564Z,14.30
2023-01-01T14:39:37.059Z,14.20
2023-01-01T14:44:46.266Z,14.10
2023-01-01T14:49:50.581Z,14.00
2023-01-01T14:54:53.937Z,14.00
2023-01-01T15:01:12.215Z,13.90
2023-01-01T15:06:17.841Z,13.90
2023-01-01T15:11:28.287Z,13.90
2023-01-01T15:16:39.744Z,13.90
2023-01-01T15:21:42.829Z,13.80
2023-01-01T15:27:01.468Z,13.60
2023-01-01T15:32:07.392Z,13.50
2023-01-01T15:37:16.316Z,13.20
2023-01-01T15:42:33.522Z,13.00
2023-01-01T15:47:38.754Z,12.70
2023-01-01T15:52:44.484Z,12.50
2023-01-01T15:57:49.119Z,12.30
2023-01-01T16:02:54.424Z,11.90
2023-01-01T16:08:05.102Z,11.80
2023-01-01T16:13:08.578Z,11.60
2023-01-01T16:18:13.115Z,11.60
2023-01-01T16:23:17.708Z,11.20
2023-01-01T16:28:20.132Z,11.00
2023-01-01T16:33:25.672Z,11.00
2023-01-01T16:38:28.063Z,10.80
2023-01-01T16:43:30.458Z,10.80
2023-01-01T16:48:32.912Z,10.70
2023-01-01T16:53:36.642Z,10.70
2023-01-01T16:59:02.361Z,10.70
2023-01-01T17:04:02.359Z,10.70
2023-01-01T17:09:05.977Z,10.70
2023-01-01T17:14:10.482Z,10.80
2023-01-01T17:19:15.480Z,10.80
2023-01-01T17:24:20.611Z,10.80
2023-01-01T17:29:23.904Z,11.00
2023-01-01T17:34:26.315Z,10.90
2023-01-01T17:39:28.721Z,10.90
2023-01-01T17:44:31.133Z,10.80
2023-01-01T17:49:33.582Z,10.80
2023-01-01T17:54:37.175Z,10.60
2023-01-01T17:59:39.546Z,10.60
2023-01-01T18:04:42.127Z,10.40
2023-01-01T18:09:44.518Z,10.40
2023-01-01T18:14:46.900Z,10.30
2023-01-01T18:19:49.690Z,10.30
2023-01-01T18:24:52.204Z,10.20
2023-01-01T18:29:54.635Z,10.20
2023-01-01T18:34:57.425Z,10.20
2023-01-01T18:40:00.332Z,10.20
2023-01-01T18:45:16.450Z,10.20
2023-01-01T18:50:27.660Z,10.20
2023-01-01T18:55:31.332Z,10.20
2023-01-01T19:00:37.592Z,10.20
2023-01-01T19:05:40.879Z,10.20
2023-01-01T19:10:46.314Z,10.40
2023-01-01T19:15:52.873Z,10.10
2023-01-01T19:21:12.073Z,10.00
2023-01-01T19:26:29.329Z,9.90
2023-01-01T19:31:31.754Z,9.90
2023-01-01T19:36:34.161Z,9.90
2023-01-01T19:41:36.928Z,9.90
2023-01-01T19:46:39.577Z,9.80
2023-01-01T19:51:42.132Z,9.80
2023-01-01T19:56:45.240Z,9.80
2023-01-01T20:02:03.354Z,10.00
2023-01-01T20:07:10.007Z,10.00
2023-01-01T20:12:12.387Z,10.10
2023-01-01T20:17:14.940Z,10.20
2023-01-01T20:22:18.129Z,10.10
2023-01-01T20:27:26.918Z,10.10
2023-01-01T20:32:29.392Z,10.20
2023-01-01T20:37:37.529Z,10.40
2023-01-01T20:42:39.946Z,10.30
2023-01-01T20:47:42.381Z,10.20
2023-01-01T20:52:45.146Z,10.20
2023-01-01T20:57:47.573Z,10.30
2023-01-01T21:02:50.080Z,10.30
2023-01-01T21:07:52.576Z,10.30
2023-01-01T21:12:55.102Z,10.30
2023-01-01T21:17:57.568Z,10.40
2023-01-01T21:23:01.304Z,10.40
2023-01-01T21:28:12.810Z,10.30
2023-01-01T21:33:28.041Z,10.40
2023-01-01T21:38:31.853Z,10.20
2023-01-01T21:43:47.976Z,10.20
2023-01-01T21:49:22.306Z,10.20
2023-01-01T21:54:33.163Z,10.10
2023-01-01T21:59:38.469Z,10.30
2023-01-01T22:04:45.184Z,10.30
2023-01-01T22:09:49.356Z,10.20
2023-01-01T22:14:53.748Z,10.40
2023-01-01T22:20:19.110Z,10.10
2023-01-01T22:25:29.871Z,10.20
2023-01-01T22:30:42.276Z,10.20
2023-01-01T22:35:45.725Z,10.30
2023-01-01T22:40:51.280Z,10.30
2023-01-01T22:45:54.364Z,10.40
2023-01-01T22:50:58.658Z,10.40
2023-01-01T22:56:01.069Z,10.40
2023-01-01T23:01:03.558Z,10.40
2023-01-01T23:06:06.702Z,10.30
2023-01-01T23:11:09.186Z,10.20
2023-01-01T23:16:11.590Z,10.10
2023-01-01T23:21:26.511Z,10.10
2023-01-01T23:26:30.672Z,10.00
2023-01-01T23:31:33.853Z,10.00
2023-01-01T23:36:36.741Z,10.00
2023-01-01T23:41:39.208Z,10.00
2023-01-01T23:46:41.706Z,9.90
2023-01-01T23:51:44.406Z,9.90
2023-01-01T23:56:46.825Z,9.90
